sensor_id;sensor_type;location;lat;lon;timestamp;P1;durP1;ratioP1;P2;durP2;ratioP2
20545;SDS011;10431;50.228;9.112;2023-05-18T00:01:10;6.55;;;2.60;;
20545;SDS011;10431;50.228;9.112;2023-05-18T00:03:39;4.57;;;2.47;;
20545;SDS011;10431;50.228;9.112;2023-05-18T00:06:05;6.72;;;2.60;;
20545;SDS011;10431;50.228;9.112;2023-05-18T00:08:32;6.97;;;2.60;;
20545;SDS011;10431;50.228;9.112;2023-05-18T00:10:59;5.80;;;2.90;;
20545;SDS011;10431;50.228;9.112;2023-05-18T00:13:26;7.13;;;3.00;;
20545;SDS011;10431;50.228;9.112;2023-05-18T00:15:53;4.40;;;2.33;;
20545;SDS011;10431;50.228;9.112;2023-05-18T00:18:19;7.50;;;3.35;;
20545;SDS011;10431;50.228;9.112;2023-05-18T00:20:49;5.28;;;2.60;;
20545;SDS011;10431;50.228;9.112;2023-05-18T00:23:15;6.00;;;2.70;;
20545;SDS011;10431;50.228;9.112;2023-05-18T00:25:42;3.58;;;2.25;;
20545;SDS011;10431;50.228;9.112;2023-05-18T00:28:08;4.53;;;2.90;;
20545;SDS011;10431;50.228;9.112;2023-05-18T00:30:36;5.57;;;3.00;;
20545;SDS011;10431;50.228;9.112;2023-05-18T00:33:02;4.65;;;2.50;;
20545;SDS011;10431;50.228;9.112;2023-05-18T00:35:28;5.05;;;2.58;;
20545;SDS011;10431;50.228;9.112;2023-05-18T00:37:55;4.10;;;2.72;;
20545;SDS011;10431;50.228;9.112;2023-05-18T00:40:22;5.65;;;2.53;;
20545;SDS011;10431;50.228;9.112;2023-05-18T00:42:50;6.03;;;2.78;;
20545;SDS011;10431;50.228;9.112;2023-05-18T00:45:17;4.75;;;2.53;;
20545;SDS011;10431;50.228;9.112;2023-05-18T00:47:43;6.00;;;2.50;;
20545;SDS011;10431;50.228;9.112;2023-05-18T00:50:10;5.32;;;2.53;;
20545;SDS011;10431;50.228;9.112;2023-05-18T00:52:37;4.78;;;2.53;;
20545;SDS011;10431;50.228;9.112;2023-05-18T00:55:04;5.30;;;2.60;;
20545;SDS011;10431;50.228;9.112;2023-05-18T00:57:31;4.43;;;2.42;;
20545;SDS011;10431;50.228;9.112;2023-05-18T00:59:58;5.78;;;2.67;;
20545;SDS011;10431;50.228;9.112;2023-05-18T01:02:25;5.63;;;2.65;;
20545;SDS011;10431;50.228;9.112;2023-05-18T01:04:55;4.93;;;2.50;;
20545;SDS011;10431;50.228;9.112;2023-05-18T01:07:21;5.75;;;2.63;;
20545;SDS011;10431;50.228;9.112;2023-05-18T01:09:51;3.60;;;2.28;;
20545;SDS011;10431;50.228;9.112;2023-05-18T01:12:28;6.03;;;2.60;;
20545;SDS011;10431;50.228;9.112;2023-05-18T01:15:03;6.30;;;2.33;;
20545;SDS011;10431;50.228;9.112;2023-05-18T01:20:30;7.95;;;2.70;;
20545;SDS011;10431;50.228;9.112;2023-05-18T01:23:10;5.00;;;2.53;;
20545;SDS011;10431;50.228;9.112;2023-05-18T01:28:27;3.40;;;2.20;;
20545;SDS011;10431;50.228;9.112;2023-05-18T01:30:57;3.17;;;2.15;;
20545;SDS011;10431;50.228;9.112;2023-05-18T01:33:23;3.78;;;2.45;;
20545;SDS011;10431;50.228;9.112;2023-05-18T01:35:50;4.90;;;2.15;;
20545;SDS011;10431;50.228;9.112;2023-05-18T01:38:18;3.83;;;2.40;;
20545;SDS011;10431;50.228;9.112;2023-05-18T01:40:52;4.45;;;2.40;;
20545;SDS011;10431;50.228;9.112;2023-05-18T01:43:31;3.55;;;2.10;;
20545;SDS011;10431;50.228;9.112;2023-05-18T01:46:24;5.38;;;2.28;;
20545;SDS011;10431;50.228;9.112;2023-05-18T01:48:59;3.67;;;2.17;;
20545;SDS011;10431;50.228;9.112;2023-05-18T01:51:30;4.07;;;2.40;;
20545;SDS011;10431;50.228;9.112;2023-05-18T01:54:04;3.45;;;2.13;;
20545;SDS011;10431;50.228;9.112;2023-05-18T01:56:33;5.18;;;2.13;;
20545;SDS011;10431;50.228;9.112;2023-05-18T01:59:00;5.05;;;2.22;;
20545;SDS011;10431;50.228;9.112;2023-05-18T02:01:28;2.72;;;2.08;;
20545;SDS011;10431;50.228;9.112;2023-05-18T02:03:55;4.05;;;2.45;;
20545;SDS011;10431;50.228;9.112;2023-05-18T02:06:21;3.70;;;2.00;;
20545;SDS011;10431;50.228;9.112;2023-05-18T02:08:48;3.65;;;2.15;;
20545;SDS011;10431;50.228;9.112;2023-05-18T02:11:15;3.38;;;2.13;;
20545;SDS011;10431;50.228;9.112;2023-05-18T02:13:41;4.93;;;2.20;;
20545;SDS011;10431;50.228;9.112;2023-05-18T02:16:07;3.33;;;2.00;;
20545;SDS011;10431;50.228;9.112;2023-05-18T02:18:33;4.15;;;2.05;;
20545;SDS011;10431;50.228;9.112;2023-05-18T02:21:00;3.45;;;2.20;;
20545;SDS011;10431;50.228;9.112;2023-05-18T02:23:27;2.90;;;2.15;;
20545;SDS011;10431;50.228;9.112;2023-05-18T02:25:53;3.55;;;2.03;;
20545;SDS011;10431;50.228;9.112;2023-05-18T02:28:20;2.97;;;2.08;;
20545;SDS011;10431;50.228;9.112;2023-05-18T02:30:47;4.03;;;2.45;;
20545;SDS011;10431;50.228;9.112;2023-05-18T02:33:14;3.47;;;2.28;;
20545;SDS011;10431;50.228;9.112;2023-05-18T02:35:42;3.53;;;2.15;;
20545;SDS011;10431;50.228;9.112;2023-05-18T02:38:08;3.70;;;2.20;;
20545;SDS011;10431;50.228;9.112;2023-05-18T02:40:35;5.30;;;2.50;;
20545;SDS011;10431;50.228;9.112;2023-05-18T02:43:01;4.00;;;2.30;;
20545;SDS011;10431;50.228;9.112;2023-05-18T02:45:28;3.97;;;2.13;;
20545;SDS011;10431;50.228;9.112;2023-05-18T02:47:55;3.85;;;2.50;;
20545;SDS011;10431;50.228;9.112;2023-05-18T02:50:21;6.00;;;2.47;;
20545;SDS011;10431;50.228;9.112;2023-05-18T02:52:47;2.78;;;2.25;;
20545;SDS011;10431;50.228;9.112;2023-05-18T02:55:15;3.42;;;2.03;;
20545;SDS011;10431;50.228;9.112;2023-05-18T02:58:11;3.63;;;1.92;;
20545;SDS011;10431;50.228;9.112;2023-05-18T03:00:58;5.43;;;2.42;;
20545;SDS011;10431;50.228;9.112;2023-05-18T03:03:28;3.65;;;2.00;;
20545;SDS011;10431;50.228;9.112;2023-05-18T03:05:54;3.47;;;2.00;;
20545;SDS011;10431;50.228;9.112;2023-05-18T03:08:21;5.22;;;2.38;;
20545;SDS011;10431;50.228;9.112;2023-05-18T03:10:48;3.25;;;2.00;;
20545;SDS011;10431;50.228;9.112;2023-05-18T03:13:15;2.97;;;1.83;;
20545;SDS011;10431;50.228;9.112;2023-05-18T03:15:41;2.80;;;1.95;;
20545;SDS011;10431;50.228;9.112;2023-05-18T03:18:10;3.55;;;1.90;;
20545;SDS011;10431;50.228;9.112;2023-05-18T03:20:38;6.60;;;2.10;;
20545;SDS011;10431;50.228;9.112;2023-05-18T03:23:05;2.67;;;2.05;;
20545;SDS011;10431;50.228;9.112;2023-05-18T03:25:33;2.63;;;2.10;;
20545;SDS011;10431;50.228;9.112;2023-05-18T03:28:02;3.00;;;1.80;;
20545;SDS011;10431;50.228;9.112;2023-05-18T03:30:32;2.28;;;1.88;;
20545;SDS011;10431;50.228;9.112;2023-05-18T03:32:59;3.17;;;1.83;;
20545;SDS011;10431;50.228;9.112;2023-05-18T03:35:27;3.55;;;2.10;;
20545;SDS011;10431;50.228;9.112;2023-05-18T03:37:53;4.13;;;2.20;;
20545;SDS011;10431;50.228;9.112;2023-05-18T03:40:20;3.40;;;2.05;;
20545;SDS011;10431;50.228;9.112;2023-05-18T03:42:48;4.13;;;2.22;;
20545;SDS011;10431;50.228;9.112;2023-05-18T03:45:14;2.72;;;2.03;;
20545;SDS011;10431;50.228;9.112;2023-05-18T03:47:42;2.17;;;1.80;;
20545;SDS011;10431;50.228;9.112;2023-05-18T03:50:08;2.47;;;1.63;;
20545;SDS011;10431;50.228;9.112;2023-05-18T03:52:35;2.55;;;1.63;;
20545;SDS011;10431;50.228;9.112;2023-05-18T03:55:02;2.22;;;1.67;;
20545;SDS011;10431;50.228;9.112;2023-05-18T03:57:31;1.95;;;1.60;;
20545;SDS011;10431;50.228;9.112;2023-05-18T03:59:59;2.50;;;1.88;;
20545;SDS011;10431;50.228;9.112;2023-05-18T04:02:25;2.53;;;1.90;;
20545;SDS011;10431;50.228;9.112;2023-05-18T04:04:52;2.97;;;1.92;;
20545;SDS011;10431;50.228;9.112;2023-05-18T04:07:19;4.53;;;2.03;;
20545;SDS011;10431;50.228;9.112;2023-05-18T04:09:49;3.78;;;2.08;;
20545;SDS011;10431;50.228;9.112;2023-05-18T04:12:16;2.33;;;1.80;;
20545;SDS011;10431;50.228;9.112;2023-05-18T04:14:43;3.58;;;1.95;;
20545;SDS011;10431;50.228;9.112;2023-05-18T04:17:17;2.38;;;1.92;;
20545;SDS011;10431;50.228;9.112;2023-05-18T04:19:50;3.72;;;1.90;;
20545;SDS011;10431;50.228;9.112;2023-05-18T04:22:16;4.22;;;1.90;;
20545;SDS011;10431;50.228;9.112;2023-05-18T04:24:44;2.83;;;1.80;;
20545;SDS011;10431;50.228;9.112;2023-05-18T04:27:12;2.58;;;1.90;;
20545;SDS011;10431;50.228;9.112;2023-05-18T04:29:38;3.08;;;1.77;;
20545;SDS011;10431;50.228;9.112;2023-05-18T04:32:05;2.90;;;1.80;;
20545;SDS011;10431;50.228;9.112;2023-05-18T04:34:33;3.28;;;1.75;;
20545;SDS011;10431;50.228;9.112;2023-05-18T04:37:00;3.50;;;1.70;;
20545;SDS011;10431;50.228;9.112;2023-05-18T04:39:33;2.42;;;1.65;;
20545;SDS011;10431;50.228;9.112;2023-05-18T04:42:02;2.47;;;1.90;;
20545;SDS011;10431;50.228;9.112;2023-05-18T04:44:30;2.97;;;2.05;;
20545;SDS011;10431;50.228;9.112;2023-05-18T04:46:59;2.15;;;1.83;;
20545;SDS011;10431;50.228;9.112;2023-05-18T04:49:26;2.33;;;1.85;;
20545;SDS011;10431;50.228;9.112;2023-05-18T04:51:53;3.35;;;2.00;;
20545;SDS011;10431;50.228;9.112;2023-05-18T04:54:24;2.58;;;1.70;;
20545;SDS011;10431;50.228;9.112;2023-05-18T04:56:53;4.13;;;1.77;;
20545;SDS011;10431;50.228;9.112;2023-05-18T04:59:19;2.50;;;1.80;;
20545;SDS011;10431;50.228;9.112;2023-05-18T05:01:45;2.65;;;1.98;;
20545;SDS011;10431;50.228;9.112;2023-05-18T05:04:11;3.00;;;1.70;;
20545;SDS011;10431;50.228;9.112;2023-05-18T05:06:38;2.72;;;1.70;;
20545;SDS011;10431;50.228;9.112;2023-05-18T05:09:04;3.17;;;1.70;;
20545;SDS011;10431;50.228;9.112;2023-05-18T05:11:30;1.90;;;1.38;;
20545;SDS011;10431;50.228;9.112;2023-05-18T05:13:57;1.92;;;1.40;;
20545;SDS011;10431;50.228;9.112;2023-05-18T05:16:23;2.40;;;1.60;;
20545;SDS011;10431;50.228;9.112;2023-05-18T05:18:49;3.03;;;1.88;;
20545;SDS011;10431;50.228;9.112;2023-05-18T05:21:16;2.30;;;1.85;;
20545;SDS011;10431;50.228;9.112;2023-05-18T05:23:42;3.25;;;2.00;;
20545;SDS011;10431;50.228;9.112;2023-05-18T05:26:10;2.53;;;1.88;;
20545;SDS011;10431;50.228;9.112;2023-05-18T05:28:36;3.53;;;1.85;;
20545;SDS011;10431;50.228;9.112;2023-05-18T05:31:03;3.08;;;1.60;;
20545;SDS011;10431;50.228;9.112;2023-05-18T05:33:29;3.58;;;1.77;;
20545;SDS011;10431;50.228;9.112;2023-05-18T05:35:57;3.58;;;1.55;;
20545;SDS011;10431;50.228;9.112;2023-05-18T05:38:23;3.03;;;2.00;;
20545;SDS011;10431;50.228;9.112;2023-05-18T05:40:49;3.65;;;1.80;;
20545;SDS011;10431;50.228;9.112;2023-05-18T05:43:16;3.53;;;1.73;;
20545;SDS011;10431;50.228;9.112;2023-05-18T05:45:44;3.28;;;1.73;;
20545;SDS011;10431;50.228;9.112;2023-05-18T05:48:10;3.30;;;2.00;;
20545;SDS011;10431;50.228;9.112;2023-05-18T05:50:37;3.80;;;1.77;;
20545;SDS011;10431;50.228;9.112;2023-05-18T05:53:04;3.03;;;2.00;;
20545;SDS011;10431;50.228;9.112;2023-05-18T05:55:34;4.85;;;1.75;;
20545;SDS011;10431;50.228;9.112;2023-05-18T05:58:08;3.05;;;2.00;;
20545;SDS011;10431;50.228;9.112;2023-05-18T06:00:35;4.43;;;1.90;;
20545;SDS011;10431;50.228;9.112;2023-05-18T06:03:03;4.93;;;2.10;;
20545;SDS011;10431;50.228;9.112;2023-05-18T06:05:38;4.05;;;2.15;;
20545;SDS011;10431;50.228;9.112;2023-05-18T06:08:07;3.65;;;2.20;;
20545;SDS011;10431;50.228;9.112;2023-05-18T06:10:34;4.35;;;2.00;;
20545;SDS011;10431;50.228;9.112;2023-05-18T06:13:00;3.47;;;2.00;;
20545;SDS011;10431;50.228;9.112;2023-05-18T06:15:38;5.63;;;1.92;;
20545;SDS011;10431;50.228;9.112;2023-05-18T06:18:04;4.80;;;2.10;;
20545;SDS011;10431;50.228;9.112;2023-05-18T06:20:30;4.88;;;2.35;;
20545;SDS011;10431;50.228;9.112;2023-05-18T06:22:57;4.30;;;2.33;;
20545;SDS011;10431;50.228;9.112;2023-05-18T06:25:37;5.95;;;2.25;;
20545;SDS011;10431;50.228;9.112;2023-05-18T06:28:09;4.68;;;2.35;;
20545;SDS011;10431;50.228;9.112;2023-05-18T06:30:45;4.72;;;2.60;;
20545;SDS011;10431;50.228;9.112;2023-05-18T06:33:19;6.25;;;2.38;;
20545;SDS011;10431;50.228;9.112;2023-05-18T06:35:48;4.75;;;2.40;;
20545;SDS011;10431;50.228;9.112;2023-05-18T06:38:14;8.65;;;2.80;;
20545;SDS011;10431;50.228;9.112;2023-05-18T06:40:41;6.85;;;2.30;;
20545;SDS011;10431;50.228;9.112;2023-05-18T06:43:07;6.72;;;2.40;;
20545;SDS011;10431;50.228;9.112;2023-05-18T06:45:55;4.53;;;2.00;;
20545;SDS011;10431;50.228;9.112;2023-05-18T06:48:48;5.13;;;2.40;;
20545;SDS011;10431;50.228;9.112;2023-05-18T06:51:14;5.63;;;1.98;;
20545;SDS011;10431;50.228;9.112;2023-05-18T06:53:42;5.75;;;2.50;;
20545;SDS011;10431;50.228;9.112;2023-05-18T06:56:09;4.88;;;2.40;;
20545;SDS011;10431;50.228;9.112;2023-05-18T06:58:40;5.15;;;2.30;;
20545;SDS011;10431;50.228;9.112;2023-05-18T07:01:07;10.07;;;2.40;;
20545;SDS011;10431;50.228;9.112;2023-05-18T07:03:34;16.02;;;2.20;;
20545;SDS011;10431;50.228;9.112;2023-05-18T07:06:00;7.30;;;2.47;;
20545;SDS011;10431;50.228;9.112;2023-05-18T07:08:29;6.60;;;2.60;;
20545;SDS011;10431;50.228;9.112;2023-05-18T07:10:56;4.15;;;2.05;;
20545;SDS011;10431;50.228;9.112;2023-05-18T07:13:23;6.07;;;2.50;;
20545;SDS011;10431;50.228;9.112;2023-05-18T07:15:49;4.47;;;2.10;;
20545;SDS011;10431;50.228;9.112;2023-05-18T07:18:15;5.80;;;2.40;;
20545;SDS011;10431;50.228;9.112;2023-05-18T07:20:42;4.25;;;2.00;;
20545;SDS011;10431;50.228;9.112;2023-05-18T07:23:08;3.47;;;1.92;;
20545;SDS011;10431;50.228;9.112;2023-05-18T07:25:34;4.10;;;2.08;;
20545;SDS011;10431;50.228;9.112;2023-05-18T07:28:00;3.95;;;2.00;;
20545;SDS011;10431;50.228;9.112;2023-05-18T07:30:26;3.47;;;2.08;;
20545;SDS011;10431;50.228;9.112;2023-05-18T07:32:53;6.63;;;2.03;;
20545;SDS011;10431;50.228;9.112;2023-05-18T07:35:21;3.50;;;1.90;;
20545;SDS011;10431;50.228;9.112;2023-05-18T07:37:48;4.88;;;2.22;;
20545;SDS011;10431;50.228;9.112;2023-05-18T07:40:16;4.80;;;1.90;;
20545;SDS011;10431;50.228;9.112;2023-05-18T07:42:42;3.60;;;2.40;;
20545;SDS011;10431;50.228;9.112;2023-05-18T07:45:09;4.70;;;2.10;;
20545;SDS011;10431;50.228;9.112;2023-05-18T07:47:35;5.88;;;2.17;;
20545;SDS011;10431;50.228;9.112;2023-05-18T07:50:02;6.38;;;2.10;;
20545;SDS011;10431;50.228;9.112;2023-05-18T07:52:28;3.35;;;2.08;;
20545;SDS011;10431;50.228;9.112;2023-05-18T07:54:55;4.68;;;2.03;;
20545;SDS011;10431;50.228;9.112;2023-05-18T07:57:22;5.32;;;2.10;;
20545;SDS011;10431;50.228;9.112;2023-05-18T07:59:49;3.80;;;2.28;;
20545;SDS011;10431;50.228;9.112;2023-05-18T08:02:15;4.15;;;1.88;;
20545;SDS011;10431;50.228;9.112;2023-05-18T08:04:44;3.40;;;1.98;;
20545;SDS011;10431;50.228;9.112;2023-05-18T08:07:11;3.50;;;1.85;;
20545;SDS011;10431;50.228;9.112;2023-05-18T08:09:38;2.63;;;1.95;;
20545;SDS011;10431;50.228;9.112;2023-05-18T08:12:04;2.80;;;1.90;;
20545;SDS011;10431;50.228;9.112;2023-05-18T08:14:31;3.72;;;2.13;;
20545;SDS011;10431;50.228;9.112;2023-05-18T08:16:57;3.92;;;2.00;;
20545;SDS011;10431;50.228;9.112;2023-05-18T08:19:23;8.10;;;2.10;;
20545;SDS011;10431;50.228;9.112;2023-05-18T08:21:50;4.60;;;2.22;;
20545;SDS011;10431;50.228;9.112;2023-05-18T08:24:16;3.42;;;1.70;;
20545;SDS011;10431;50.228;9.112;2023-05-18T08:26:42;3.20;;;1.90;;
20545;SDS011;10431;50.228;9.112;2023-05-18T08:29:08;5.03;;;1.80;;
20545;SDS011;10431;50.228;9.112;2023-05-18T08:31:36;3.95;;;1.90;;
20545;SDS011;10431;50.228;9.112;2023-05-18T08:34:03;4.10;;;1.83;;
20545;SDS011;10431;50.228;9.112;2023-05-18T08:36:30;5.88;;;2.10;;
20545;SDS011;10431;50.228;9.112;2023-05-18T08:38:57;5.30;;;1.70;;
20545;SDS011;10431;50.228;9.112;2023-05-18T08:44:17;3.40;;;2.00;;
20545;SDS011;10431;50.228;9.112;2023-05-18T08:46:48;3.70;;;1.83;;
20545;SDS011;10431;50.228;9.112;2023-05-18T08:49:16;3.10;;;1.88;;
20545;SDS011;10431;50.228;9.112;2023-05-18T08:51:45;3.13;;;1.80;;
20545;SDS011;10431;50.228;9.112;2023-05-18T08:54:21;3.95;;;1.77;;
20545;SDS011;10431;50.228;9.112;2023-05-18T08:56:48;4.80;;;1.98;;
20545;SDS011;10431;50.228;9.112;2023-05-18T08:59:18;4.75;;;1.80;;
20545;SDS011;10431;50.228;9.112;2023-05-18T09:01:49;2.30;;;1.50;;
20545;SDS011;10431;50.228;9.112;2023-05-18T09:04:17;6.45;;;1.77;;
20545;SDS011;10431;50.228;9.112;2023-05-18T09:06:45;3.03;;;1.75;;
20545;SDS011;10431;50.228;9.112;2023-05-18T09:09:12;2.95;;;1.90;;
20545;SDS011;10431;50.228;9.112;2023-05-18T09:11:39;5.03;;;1.65;;
20545;SDS011;10431;50.228;9.112;2023-05-18T09:14:07;3.72;;;1.80;;
20545;SDS011;10431;50.228;9.112;2023-05-18T09:16:33;3.72;;;1.80;;
20545;SDS011;10431;50.228;9.112;2023-05-18T09:19:00;4.95;;;2.10;;
20545;SDS011;10431;50.228;9.112;2023-05-18T09:21:26;2.65;;;1.40;;
20545;SDS011;10431;50.228;9.112;2023-05-18T09:23:55;3.28;;;1.80;;
20545;SDS011;10431;50.228;9.112;2023-05-18T09:26:22;6.75;;;2.50;;
20545;SDS011;10431;50.228;9.112;2023-05-18T09:28:50;5.82;;;2.40;;
20545;SDS011;10431;50.228;9.112;2023-05-18T09:31:18;6.55;;;2.20;;
20545;SDS011;10431;50.228;9.112;2023-05-18T09:33:46;9.20;;;2.88;;
20545;SDS011;10431;50.228;9.112;2023-05-18T09:36:13;8.15;;;2.75;;
20545;SDS011;10431;50.228;9.112;2023-05-18T09:38:43;14.30;;;2.97;;
20545;SDS011;10431;50.228;9.112;2023-05-18T09:41:11;10.93;;;3.08;;
20545;SDS011;10431;50.228;9.112;2023-05-18T09:43:39;8.35;;;2.80;;
20545;SDS011;10431;50.228;9.112;2023-05-18T09:46:06;12.73;;;3.50;;
20545;SDS011;10431;50.228;9.112;2023-05-18T09:48:37;13.00;;;2.75;;
20545;SDS011;10431;50.228;9.112;2023-05-18T09:51:17;10.68;;;2.50;;
20545;SDS011;10431;50.228;9.112;2023-05-18T09:53:47;9.55;;;2.70;;
20545;SDS011;10431;50.228;9.112;2023-05-18T09:56:24;9.85;;;3.00;;
20545;SDS011;10431;50.228;9.112;2023-05-18T09:58:54;11.20;;;3.00;;
20545;SDS011;10431;50.228;9.112;2023-05-18T10:01:20;11.63;;;2.88;;
20545;SDS011;10431;50.228;9.112;2023-05-18T10:03:47;12.00;;;2.95;;
20545;SDS011;10431;50.228;9.112;2023-05-18T10:06:14;9.82;;;2.78;;
20545;SDS011;10431;50.228;9.112;2023-05-18T10:08:44;8.15;;;2.75;;
20545;SDS011;10431;50.228;9.112;2023-05-18T10:11:11;7.22;;;2.40;;
20545;SDS011;10431;50.228;9.112;2023-05-18T10:13:37;11.30;;;2.67;;
20545;SDS011;10431;50.228;9.112;2023-05-18T10:16:04;9.93;;;2.95;;
20545;SDS011;10431;50.228;9.112;2023-05-18T10:18:35;8.63;;;2.90;;
20545;SDS011;10431;50.228;9.112;2023-05-18T10:21:03;6.90;;;2.45;;
20545;SDS011;10431;50.228;9.112;2023-05-18T10:23:32;11.20;;;2.30;;
20545;SDS011;10431;50.228;9.112;2023-05-18T10:25:59;6.22;;;2.47;;
20545;SDS011;10431;50.228;9.112;2023-05-18T10:28:32;9.35;;;2.65;;
20545;SDS011;10431;50.228;9.112;2023-05-18T10:31:02;9.38;;;2.70;;
20545;SDS011;10431;50.228;9.112;2023-05-18T10:33:31;8.05;;;2.55;;
20545;SDS011;10431;50.228;9.112;2023-05-18T10:35:59;8.90;;;2.50;;
20545;SDS011;10431;50.228;9.112;2023-05-18T10:38:29;11.30;;;2.63;;
20545;SDS011;10431;50.228;9.112;2023-05-18T10:40:56;9.20;;;2.33;;
20545;SDS011;10431;50.228;9.112;2023-05-18T10:43:25;10.85;;;2.67;;
20545;SDS011;10431;50.228;9.112;2023-05-18T10:45:57;13.27;;;2.63;;
20545;SDS011;10431;50.228;9.112;2023-05-18T10:48:25;14.65;;;2.83;;
20545;SDS011;10431;50.228;9.112;2023-05-18T10:50:53;9.20;;;2.47;;
20545;SDS011;10431;50.228;9.112;2023-05-18T10:53:21;7.55;;;2.58;;
20545;SDS011;10431;50.228;9.112;2023-05-18T10:55:52;9.23;;;2.67;;
20545;SDS011;10431;50.228;9.112;2023-05-18T10:58:19;7.88;;;3.03;;
20545;SDS011;10431;50.228;9.112;2023-05-18T11:00:49;9.90;;;2.55;;
20545;SDS011;10431;50.228;9.112;2023-05-18T11:03:17;6.70;;;2.65;;
20545;SDS011;10431;50.228;9.112;2023-05-18T11:05:48;7.45;;;2.50;;
20545;SDS011;10431;50.228;9.112;2023-05-18T11:08:25;8.02;;;2.72;;
20545;SDS011;10431;50.228;9.112;2023-05-18T11:11:02;7.80;;;2.42;;
20545;SDS011;10431;50.228;9.112;2023-05-18T11:13:32;7.82;;;2.38;;
20545;SDS011;10431;50.228;9.112;2023-05-18T11:16:00;7.35;;;2.90;;
20545;SDS011;10431;50.228;9.112;2023-05-18T11:18:37;8.35;;;2.63;;
20545;SDS011;10431;50.228;9.112;2023-05-18T11:27:01;10.45;;;2.75;;
20545;SDS011;10431;50.228;9.112;2023-05-18T11:29:42;8.07;;;2.80;;
20545;SDS011;10431;50.228;9.112;2023-05-18T11:32:26;7.05;;;2.67;;
20545;SDS011;10431;50.228;9.112;2023-05-18T11:34:55;6.30;;;2.63;;
20545;SDS011;10431;50.228;9.112;2023-05-18T11:40:03;6.85;;;2.65;;
20545;SDS011;10431;50.228;9.112;2023-05-18T11:42:31;6.53;;;2.63;;
20545;SDS011;10431;50.228;9.112;2023-05-18T11:45:11;7.55;;;2.70;;
20545;SDS011;10431;50.228;9.112;2023-05-18T11:47:38;8.82;;;2.60;;
20545;SDS011;10431;50.228;9.112;2023-05-18T11:50:05;13.77;;;3.20;;
20545;SDS011;10431;50.228;9.112;2023-05-18T11:52:33;9.10;;;2.60;;
20545;SDS011;10431;50.228;9.112;2023-05-18T11:55:12;12.77;;;3.00;;
20545;SDS011;10431;50.228;9.112;2023-05-18T11:57:41;8.13;;;2.72;;
20545;SDS011;10431;50.228;9.112;2023-05-18T12:00:10;9.23;;;3.08;;
20545;SDS011;10431;50.228;9.112;2023-05-18T12:02:46;10.35;;;3.08;;
20545;SDS011;10431;50.228;9.112;2023-05-18T12:05:13;8.50;;;2.30;;
20545;SDS011;10431;50.228;9.112;2023-05-18T12:07:40;10.80;;;2.65;;
20545;SDS011;10431;50.228;9.112;2023-05-18T12:10:08;10.35;;;2.42;;
20545;SDS011;10431;50.228;9.112;2023-05-18T12:12:36;11.52;;;3.00;;
20545;SDS011;10431;50.228;9.112;2023-05-18T12:15:07;7.07;;;2.60;;
20545;SDS011;10431;50.228;9.112;2023-05-18T12:17:38;8.63;;;2.40;;
20545;SDS011;10431;50.228;9.112;2023-05-18T12:20:18;8.60;;;2.80;;
20545;SDS011;10431;50.228;9.112;2023-05-18T12:22:50;9.90;;;3.33;;
20545;SDS011;10431;50.228;9.112;2023-05-18T12:25:18;9.30;;;2.50;;
20545;SDS011;10431;50.228;9.112;2023-05-18T12:27:46;9.70;;;2.90;;
20545;SDS011;10431;50.228;9.112;2023-05-18T12:30:17;7.85;;;2.20;;
20545;SDS011;10431;50.228;9.112;2023-05-18T12:32:46;9.88;;;2.30;;
20545;SDS011;10431;50.228;9.112;2023-05-18T12:35:23;9.38;;;2.72;;
20545;SDS011;10431;50.228;9.112;2023-05-18T12:37:50;8.50;;;2.42;;
20545;SDS011;10431;50.228;9.112;2023-05-18T12:40:20;8.00;;;2.67;;
20545;SDS011;10431;50.228;9.112;2023-05-18T12:42:59;6.00;;;2.53;;
20545;SDS011;10431;50.228;9.112;2023-05-18T12:45:28;6.07;;;2.53;;
20545;SDS011;10431;50.228;9.112;2023-05-18T12:48:08;7.50;;;2.47;;
20545;SDS011;10431;50.228;9.112;2023-05-18T12:50:35;9.23;;;2.97;;
20545;SDS011;10431;50.228;9.112;2023-05-18T12:53:10;6.60;;;2.33;;
20545;SDS011;10431;50.228;9.112;2023-05-18T12:55:37;9.73;;;2.35;;
20545;SDS011;10431;50.228;9.112;2023-05-18T12:58:10;7.53;;;2.42;;
20545;SDS011;10431;50.228;9.112;2023-05-18T13:00:43;6.18;;;2.50;;
20545;SDS011;10431;50.228;9.112;2023-05-18T13:03:12;6.90;;;2.40;;
20545;SDS011;10431;50.228;9.112;2023-05-18T13:05:40;6.85;;;2.60;;
20545;SDS011;10431;50.228;9.112;2023-05-18T13:08:15;6.88;;;2.60;;
20545;SDS011;10431;50.228;9.112;2023-05-18T13:10:46;10.55;;;2.60;;
20545;SDS011;10431;50.228;9.112;2023-05-18T13:13:15;11.40;;;3.70;;
20545;SDS011;10431;50.228;9.112;2023-05-18T13:15:42;7.13;;;3.05;;
20545;SDS011;10431;50.228;9.112;2023-05-18T13:18:09;10.45;;;3.05;;
20545;SDS011;10431;50.228;9.112;2023-05-18T13:20:41;7.57;;;3.28;;
20545;SDS011;10431;50.228;9.112;2023-05-18T13:23:10;12.75;;;2.90;;
20545;SDS011;10431;50.228;9.112;2023-05-18T13:25:39;12.00;;;2.95;;
20545;SDS011;10431;50.228;9.112;2023-05-18T13:28:06;10.40;;;3.78;;
20545;SDS011;10431;50.228;9.112;2023-05-18T13:30:35;6.65;;;2.75;;
20545;SDS011;10431;50.228;9.112;2023-05-18T13:33:01;7.47;;;3.22;;
20545;SDS011;10431;50.228;9.112;2023-05-18T13:35:28;7.68;;;3.53;;
20545;SDS011;10431;50.228;9.112;2023-05-18T13:37:54;8.02;;;3.15;;
20545;SDS011;10431;50.228;9.112;2023-05-18T13:40:20;8.43;;;3.10;;
20545;SDS011;10431;50.228;9.112;2023-05-18T13:42:49;8.73;;;3.25;;
20545;SDS011;10431;50.228;9.112;2023-05-18T13:45:16;7.50;;;2.85;;
20545;SDS011;10431;50.228;9.112;2023-05-18T13:47:42;7.20;;;3.58;;
20545;SDS011;10431;50.228;9.112;2023-05-18T13:50:15;9.73;;;3.47;;
20545;SDS011;10431;50.228;9.112;2023-05-18T13:52:42;8.50;;;3.15;;
20545;SDS011;10431;50.228;9.112;2023-05-18T13:55:08;8.18;;;2.92;;
20545;SDS011;10431;50.228;9.112;2023-05-18T13:57:35;7.20;;;3.30;;
20545;SDS011;10431;50.228;9.112;2023-05-18T14:00:01;4.90;;;2.80;;
20545;SDS011;10431;50.228;9.112;2023-05-18T14:02:40;8.85;;;3.28;;
20545;SDS011;10431;50.228;9.112;2023-05-18T14:05:07;9.85;;;2.97;;
20545;SDS011;10431;50.228;9.112;2023-05-18T14:07:37;7.60;;;2.88;;
20545;SDS011;10431;50.228;9.112;2023-05-18T14:10:05;8.60;;;3.00;;
20545;SDS011;10431;50.228;9.112;2023-05-18T14:12:32;12.52;;;3.90;;
20545;SDS011;10431;50.228;9.112;2023-05-18T14:14:59;9.82;;;3.22;;
20545;SDS011;10431;50.228;9.112;2023-05-18T14:17:26;6.68;;;2.85;;
20545;SDS011;10431;50.228;9.112;2023-05-18T14:19:54;7.00;;;2.88;;
20545;SDS011;10431;50.228;9.112;2023-05-18T14:22:21;5.13;;;2.70;;
20545;SDS011;10431;50.228;9.112;2023-05-18T14:24:47;9.35;;;3.25;;
20545;SDS011;10431;50.228;9.112;2023-05-18T14:27:14;6.47;;;3.10;;
20545;SDS011;10431;50.228;9.112;2023-05-18T14:29:40;8.25;;;3.08;;
20545;SDS011;10431;50.228;9.112;2023-05-18T14:32:07;6.53;;;3.13;;
20545;SDS011;10431;50.228;9.112;2023-05-18T14:34:33;9.52;;;2.80;;
20545;SDS011;10431;50.228;9.112;2023-05-18T14:36:59;6.93;;;2.83;;
20545;SDS011;10431;50.228;9.112;2023-05-18T14:39:25;9.38;;;2.58;;
20545;SDS011;10431;50.228;9.112;2023-05-18T14:41:52;9.60;;;2.88;;
20545;SDS011;10431;50.228;9.112;2023-05-18T14:44:18;6.82;;;3.33;;
20545;SDS011;10431;50.228;9.112;2023-05-18T14:46:44;7.75;;;3.10;;
20545;SDS011;10431;50.228;9.112;2023-05-18T14:49:10;7.55;;;2.95;;
20545;SDS011;10431;50.228;9.112;2023-05-18T14:51:37;7.70;;;2.65;;
20545;SDS011;10431;50.228;9.112;2023-05-18T14:54:03;4.65;;;2.85;;
20545;SDS011;10431;50.228;9.112;2023-05-18T14:56:29;8.00;;;3.05;;
20545;SDS011;10431;50.228;9.112;2023-05-18T14:58:56;8.68;;;3.22;;
20545;SDS011;10431;50.228;9.112;2023-05-18T15:01:22;11.45;;;3.05;;
20545;SDS011;10431;50.228;9.112;2023-05-18T15:03:48;24.52;;;3.55;;
20545;SDS011;10431;50.228;9.112;2023-05-18T15:06:15;13.93;;;3.85;;
20545;SDS011;10431;50.228;9.112;2023-05-18T15:08:41;13.82;;;3.38;;
20545;SDS011;10431;50.228;9.112;2023-05-18T15:11:07;17.17;;;3.50;;